createdAt,value
2018-12-26T00:00:28.778Z,6.01
2018-12-26T00:01:28.767Z,6.06
2018-12-26T00:02:28.755Z,6.01
2018-12-26T00:03:28.782Z,6.08
2018-12-26T00:04:28.736Z,6.00
2018-12-26T00:05:28.820Z,6.11
2018-12-26T00:06:28.713Z,6.12
2018-12-26T00:07:28.704Z,6.12
2018-12-26T00:08:28.692Z,6.04
2018-12-26T00:09:28.715Z,6.11
2018-12-26T00:10:28.671Z,6.12
2018-12-26T00:11:28.659Z,6.11
2018-12-26T00:12:28.649Z,6.17
2018-12-26T00:13:28.638Z,6.08
2018-12-26T00:14:28.669Z,6.14
2018-12-26T00:15:28.619Z,6.22
2018-12-26T00:16:28.654Z,6.11
2018-12-26T00:17:28.621Z,6.17
2018-12-26T00:18:28.706Z,6.15
2018-12-26T00:19:28.595Z,6.12
2018-12-26T00:20:28.599Z,6.18
2018-12-26T00:21:28.554Z,6.19
2018-12-26T00:22:28.542Z,6.15
2018-12-26T00:23:28.531Z,6.19
2018-12-26T00:24:28.522Z,6.14
2018-12-26T00:25:28.507Z,6.17
2018-12-26T00:26:28.523Z,6.19
2018-12-26T00:27:28.487Z,6.14
2018-12-26T00:28:28.485Z,6.08
2018-12-26T00:29:28.463Z,6.27
2018-12-26T00:30:28.454Z,6.19
2018-12-26T00:31:28.538Z,6.22
2018-12-26T00:32:28.435Z,6.27
2018-12-26T00:33:28.420Z,6.22
2018-12-26T00:34:28.412Z,6.19
2018-12-26T00:35:28.397Z,6.18
2018-12-26T00:36:28.387Z,6.22
2018-12-26T00:37:28.411Z,6.22
2018-12-26T00:38:28.367Z,6.27
2018-12-26T00:39:28.354Z,6.28
2018-12-26T00:40:28.345Z,6.22
2018-12-26T00:41:28.334Z,6.25
2018-12-26T00:42:28.324Z,6.31
2018-12-26T00:43:28.348Z,6.25
2018-12-26T00:44:28.300Z,6.30
2018-12-26T00:45:28.291Z,6.28
2018-12-26T00:46:28.277Z,6.28
2018-12-26T00:47:28.271Z,6.19
2018-12-26T00:48:28.258Z,6.31
2018-12-26T00:49:28.271Z,6.19
2018-12-26T00:50:28.235Z,6.33
2018-12-26T00:51:28.225Z,6.31
2018-12-26T00:52:28.214Z,6.25
2018-12-26T00:53:28.205Z,6.31
2018-12-26T00:54:28.232Z,6.28
2018-12-26T00:55:28.179Z,6.27
2018-12-26T00:56:28.258Z,6.34
2018-12-26T00:57:28.159Z,6.30
2018-12-26T00:58:28.148Z,6.31
2018-12-26T00:59:28.136Z,6.31
2018-12-26T01:00:28.162Z,6.33
2018-12-26T01:01:28.119Z,6.34
2018-12-26T01:02:28.105Z,6.27
2018-12-26T01:03:28.094Z,6.25
2018-12-26T01:04:28.082Z,6.34
2018-12-26T01:05:28.124Z,6.34
2018-12-26T01:06:28.096Z,6.36
2018-12-26T01:07:28.048Z,6.33
2018-12-26T01:08:28.039Z,6.30
2018-12-26T01:09:28.027Z,6.36
2018-12-26T01:10:28.017Z,6.30
2018-12-26T01:11:28.043Z,6.27
2018-12-26T01:12:27.995Z,6.28
2018-12-26T01:13:27.984Z,6.34
2018-12-26T01:14:27.973Z,6.27
2018-12-26T01:15:27.962Z,6.30
2018-12-26T01:16:27.951Z,6.27
2018-12-26T01:17:27.975Z,6.19
2018-12-26T01:18:27.928Z,6.27
2018-12-26T01:19:27.920Z,6.17
2018-12-26T01:20:27.910Z,6.27
2018-12-26T01:21:27.900Z,6.22
2018-12-26T01:22:27.885Z,6.28
2018-12-26T01:23:27.913Z,6.33
2018-12-26T01:24:27.866Z,6.27
2018-12-26T01:25:27.856Z,6.30
2018-12-26T01:26:27.843Z,6.28
2018-12-26T01:27:27.838Z,6.22
2018-12-26T01:28:27.820Z,6.30
2018-12-26T01:29:27.846Z,6.27
2018-12-26T01:30:27.801Z,6.27
2018-12-26T01:31:27.792Z,6.28
2018-12-26T01:32:27.781Z,6.27
2018-12-26T01:33:27.766Z,6.22
2018-12-26T01:34:27.757Z,6.22
2018-12-26T01:35:27.786Z,6.30
2018-12-26T01:36:27.736Z,6.33
2018-12-26T01:37:27.724Z,6.25
2018-12-26T01:38:27.713Z,6.28
2018-12-26T01:39:27.703Z,6.22
2018-12-26T01:40:27.692Z,6.21
2018-12-26T01:41:27.707Z,6.21
2018-12-26T01:42:27.669Z,6.15
2018-12-26T01:43:27.658Z,6.19
2018-12-26T01:44:27.650Z,6.21
2018-12-26T01:45:27.637Z,6.22
2018-12-26T01:46:27.663Z,6.22
2018-12-26T01:47:27.616Z,6.22
2018-12-26T01:48:27.606Z,6.22
2018-12-26T01:49:27.593Z,6.25
2018-12-26T01:50:27.591Z,6.14
2018-12-26T01:51:27.573Z,6.19
2018-12-26T01:52:27.598Z,6.21
2018-12-26T01:53:27.551Z,6.18
2018-12-26T01:54:27.539Z,6.12
2018-12-26T01:55:27.527Z,6.15
2018-12-26T01:56:28.162Z,6.19
2018-12-26T01:57:27.507Z,6.22
2018-12-26T01:58:27.524Z,6.19
2018-12-26T01:59:27.491Z,6.18
2018-12-26T02:00:27.475Z,6.15
2018-12-26T02:01:27.470Z,6.25
2018-12-26T02:02:27.454Z,6.19
2018-12-26T02:03:27.478Z,6.18
2018-12-26T02:04:27.432Z,6.14
2018-12-26T02:05:27.421Z,6.18
2018-12-26T02:06:27.412Z,6.22
2018-12-26T02:07:27.401Z,6.17
2018-12-26T02:08:27.399Z,6.22
2018-12-26T02:09:27.415Z,6.19
2018-12-26T02:10:27.465Z,6.14
2018-12-26T02:11:27.359Z,6.18
2018-12-26T02:12:27.347Z,6.11
2018-12-26T02:13:27.337Z,6.17
2018-12-26T02:14:27.325Z,6.15
2018-12-26T02:15:27.351Z,6.17
2018-12-26T02:16:27.318Z,6.15
2018-12-26T02:17:27.294Z,6.18
2018-12-26T02:18:27.284Z,6.18
2018-12-26T02:19:27.273Z,6.12
2018-12-26T02:20:27.263Z,6.11
2018-12-26T02:21:27.276Z,6.08
2018-12-26T02:22:27.241Z,6.12
2018-12-26T02:23:27.229Z,6.08
2018-12-26T02:24:27.221Z,6.15
2018-12-26T02:25:27.207Z,6.09
2018-12-26T02:26:27.236Z,6.03
2018-12-26T02:27:27.188Z,6.06
2018-12-26T02:28:27.175Z,6.12
2018-12-26T02:29:27.163Z,6.11
2018-12-26T02:30:27.157Z,6.12
2018-12-26T02:31:27.148Z,6.08
2018-12-26T02:32:27.172Z,6.04
2018-12-26T02:33:27.125Z,6.06
2018-12-26T02:34:27.113Z,6.08
2018-12-26T02:35:27.103Z,6.00
2018-12-26T02:36:27.094Z,6.08
2018-12-26T02:37:27.093Z,6.17
2018-12-26T02:38:27.095Z,6.08
2018-12-26T02:39:27.057Z,6.01
2018-12-26T02:40:27.047Z,6.08
2018-12-26T02:41:27.040Z,6.12
2018-12-26T02:42:27.024Z,6.15
2018-12-26T02:43:27.063Z,6.09
2018-12-26T02:44:27.003Z,6.08
2018-12-26T02:45:26.997Z,5.96
2018-12-26T02:46:26.985Z,6.00
2018-12-26T02:47:26.970Z,6.06
2018-12-26T02:48:26.961Z,6.09
2018-12-26T02:49:26.986Z,6.04
2018-12-26T02:50:26.939Z,6.11
2018-12-26T02:51:26.936Z,6.09
2018-12-26T02:52:26.918Z,6.04
2018-12-26T02:53:26.906Z,6.00
2018-12-26T02:54:26.899Z,6.06
2018-12-26T02:55:26.910Z,5.96
2018-12-26T02:56:26.873Z,6.06
2018-12-26T02:57:26.916Z,5.94
2018-12-26T02:58:26.854Z,5.94
2018-12-26T02:59:26.843Z,6.04
2018-12-26T03:00:26.831Z,6.04
2018-12-26T03:01:26.822Z,6.00
2018-12-26T03:02:26.818Z,5.96
2018-12-26T03:03:26.825Z,6.03
2018-12-26T03:04:26.790Z,6.04
2018-12-26T03:05:26.779Z,6.03
2018-12-26T03:06:26.768Z,6.03
2018-12-26T03:07:26.757Z,5.96
2018-12-26T03:08:26.771Z,6.00
2018-12-26T03:09:26.738Z,6.09
2018-12-26T03:10:26.725Z,5.97
2018-12-26T03:11:26.715Z,6.03
2018-12-26T03:12:26.703Z,6.08
2018-12-26T03:13:26.726Z,6.14
2018-12-26T03:14:26.682Z,6.04
2018-12-26T03:15:26.672Z,6.09
2018-12-26T03:16:26.660Z,6.01
2018-12-26T03:17:26.654Z,6.04
2018-12-26T03:18:26.639Z,6.04
2018-12-26T03:19:26.658Z,6.04
2018-12-26T03:20:26.621Z,6.04
2018-12-26T03:21:26.606Z,6.01
2018-12-26T03:22:26.599Z,5.97
2018-12-26T03:23:26.587Z,5.99
2018-12-26T03:24:26.601Z,5.96
2018-12-26T03:25:26.565Z,5.99
2018-12-26T03:26:26.559Z,6.06
2018-12-26T03:27:26.543Z,6.03
2018-12-26T03:28:26.531Z,6.00
2018-12-26T03:29:26.558Z,6.04
2018-12-26T03:30:26.512Z,6.04
2018-12-26T03:31:26.502Z,6.09
2018-12-26T03:32:26.488Z,6.08
2018-12-26T03:33:26.480Z,6.00
2018-12-26T03:34:26.469Z,5.96
2018-12-26T03:35:26.481Z,6.04
2018-12-26T03:36:26.447Z,6.08
2018-12-26T03:37:26.438Z,6.04
2018-12-26T03:38:26.424Z,6.03
2018-12-26T03:39:26.415Z,6.06
2018-12-26T03:40:26.428Z,5.99
2018-12-26T03:41:26.392Z,6.03
2018-12-26T03:42:26.381Z,6.01
2018-12-26T03:43:26.370Z,6.03
2018-12-26T03:44:26.367Z,6.09
2018-12-26T03:45:26.375Z,6.06
2018-12-26T03:46:26.341Z,6.04
2018-12-26T03:47:26.330Z,6.01
2018-12-26T03:48:26.318Z,6.08
2018-12-26T03:49:26.315Z,6.01
2018-12-26T03:50:26.327Z,6.04
2018-12-26T03:51:26.285Z,5.94
2018-12-26T03:52:26.281Z,5.94
2018-12-26T03:53:26.265Z,6.04
2018-12-26T03:54:26.252Z,5.91
2018-12-26T03:55:26.278Z,5.99
2018-12-26T03:56:26.231Z,5.93
2018-12-26T03:57:26.223Z,5.99
2018-12-26T03:58:26.212Z,5.99
2018-12-26T03:59:26.201Z,5.96
2018-12-26T04:00:26.194Z,6.04
2018-12-26T04:01:26.202Z,6.04
2018-12-26T04:02:26.166Z,5.99
2018-12-26T04:03:26.157Z,5.96
2018-12-26T04:04:26.148Z,5.94
2018-12-26T04:05:26.137Z,5.94
2018-12-26T04:06:26.148Z,5.93
2018-12-26T04:07:26.116Z,6.01
2018-12-26T04:08:26.105Z,6.00
2018-12-26T04:09:26.093Z,5.97
2018-12-26T04:10:26.092Z,5.94
2018-12-26T04:11:26.109Z,6.03
2018-12-26T04:12:26.061Z,5.90
2018-12-26T04:13:26.050Z,6.08
2018-12-26T04:14:26.046Z,6.04
2018-12-26T04:15:26.029Z,6.11
2018-12-26T04:16:26.022Z,5.99
2018-12-26T04:17:26.034Z,5.97
2018-12-26T04:18:25.996Z,5.96
2018-12-26T04:19:25.993Z,6.06
2018-12-26T04:20:25.974Z,6.06
2018-12-26T04:21:25.965Z,6.04
2018-12-26T04:22:25.981Z,6.01
2018-12-26T04:23:25.943Z,6.03
2018-12-26T04:24:25.974Z,6.00
2018-12-26T04:25:25.923Z,6.08
2018-12-26T04:26:25.911Z,6.04
2018-12-26T04:27:25.935Z,6.04
2018-12-26T04:28:25.889Z,6.04
2018-12-26T04:29:25.882Z,6.09
2018-12-26T04:30:25.867Z,5.97
2018-12-26T04:31:25.856Z,6.08
2018-12-26T04:32:25.847Z,6.04
2018-12-26T04:33:25.859Z,6.01
2018-12-26T04:34:25.823Z,5.97
2018-12-26T04:35:25.824Z,6.01
2018-12-26T04:36:25.804Z,6.06
2018-12-26T04:37:25.795Z,5.99
2018-12-26T04:38:25.806Z,5.97
2018-12-26T04:39:25.768Z,5.94
2018-12-26T04:40:25.760Z,5.93
2018-12-26T04:41:25.752Z,5.82
2018-12-26T04:42:25.738Z,5.79
2018-12-26T04:43:25.764Z,5.82
2018-12-26T04:44:25.716Z,5.85
2018-12-26T04:45:25.705Z,5.83
2018-12-26T04:46:25.695Z,5.79
2018-12-26T04:47:25.685Z,5.83
2018-12-26T04:48:25.671Z,5.81
2018-12-26T04:49:25.691Z,5.72
2018-12-26T04:50:25.651Z,5.78
2018-12-26T04:51:25.643Z,5.72
2018-12-26T04:52:25.795Z,5.79
2018-12-26T04:53:25.625Z,5.78
2018-12-26T04:54:25.636Z,5.76
2018-12-26T04:55:25.600Z,5.75
2018-12-26T04:56:25.587Z,5.67
2018-12-26T04:57:25.577Z,5.71
2018-12-26T04:58:25.564Z,5.74
2018-12-26T04:59:25.604Z,5.75
2018-12-26T05:00:25.544Z,5.78
2018-12-26T05:01:25.532Z,5.75
2018-12-26T05:02:25.522Z,5.76
2018-12-26T05:03:25.508Z,5.76
2018-12-26T05:04:25.518Z,5.72
2018-12-26T05:05:25.521Z,5.72
2018-12-26T05:06:25.479Z,5.72
2018-12-26T05:07:25.475Z,5.63
2018-12-26T05:08:25.457Z,5.65
2018-12-26T05:09:25.446Z,5.67
2018-12-26T05:10:25.468Z,5.71
2018-12-26T05:11:25.425Z,5.60
2018-12-26T05:12:25.414Z,5.64
2018-12-26T05:13:25.409Z,5.61
2018-12-26T05:14:25.393Z,5.67
2018-12-26T05:15:25.407Z,5.67
2018-12-26T05:16:25.371Z,5.64
2018-12-26T05:17:25.360Z,5.72
2018-12-26T05:18:25.352Z,5.65
2018-12-26T05:19:25.343Z,5.64
2018-12-26T05:20:25.353Z,5.67
2018-12-26T05:21:25.316Z,5.61
2018-12-26T05:22:25.309Z,5.72
2018-12-26T05:23:25.295Z,5.67
2018-12-26T05:24:25.287Z,5.76
2018-12-26T05:25:25.312Z,5.71
2018-12-26T05:26:25.268Z,5.71
2018-12-26T05:27:33.962Z,5.75
2018-12-26T05:28:26.241Z,5.71
2018-12-26T05:29:25.237Z,5.68
2018-12-26T05:30:25.223Z,5.72
2018-12-26T05:31:25.234Z,5.67
2018-12-26T05:32:25.201Z,5.63
2018-12-26T05:33:25.189Z,5.68
2018-12-26T05:34:25.185Z,5.67
2018-12-26T05:35:25.169Z,5.63
2018-12-26T05:36:25.182Z,5.57
2018-12-26T05:37:25.145Z,5.64
2018-12-26T05:38:25.135Z,5.54
2018-12-26T05:39:25.125Z,5.57
2018-12-26T05:40:25.112Z,5.61
2018-12-26T05:41:25.139Z,5.53
2018-12-26T05:42:25.091Z,5.57
2018-12-26T05:43:25.082Z,5.51
2018-12-26T05:44:25.071Z,5.51
2018-12-26T05:45:25.062Z,5.56
2018-12-26T05:46:25.048Z,5.51
2018-12-26T05:47:25.060Z,5.53
2018-12-26T05:48:25.026Z,5.56
2018-12-26T05:49:25.020Z,5.46
2018-12-26T05:50:25.004Z,5.48
2018-12-26T05:51:24.993Z,5.53
2018-12-26T05:52:25.008Z,5.53
2018-12-26T05:53:24.971Z,5.49
2018-12-26T05:54:24.962Z,5.48
2018-12-26T05:55:24.950Z,5.51
2018-12-26T05:56:24.939Z,5.53
2018-12-26T05:57:24.962Z,5.56
2018-12-26T05:58:24.920Z,5.57
2018-12-26T05:59:24.907Z,5.49
2018-12-26T06:00:24.897Z,5.43
2018-12-26T06:01:24.885Z,5.48
2018-12-26T06:02:24.876Z,5.42
2018-12-26T06:03:24.889Z,5.49
2018-12-26T06:04:24.852Z,5.42
2018-12-26T06:05:24.843Z,5.48
2018-12-26T06:06:24.831Z,5.38
2018-12-26T06:07:24.820Z,5.36
2018-12-26T06:08:24.834Z,5.40
2018-12-26T06:09:24.799Z,5.42
2018-12-26T06:10:24.787Z,5.43
2018-12-26T06:11:24.775Z,5.39
2018-12-26T06:12:24.769Z,5.39
2018-12-26T06:13:24.795Z,5.31
2018-12-26T06:14:24.744Z,5.36
2018-12-26T06:15:24.733Z,5.45
2018-12-26T06:16:24.722Z,5.39
2018-12-26T06:17:24.711Z,5.28
2018-12-26T06:18:24.701Z,5.30
2018-12-26T06:19:24.717Z,5.35
2018-12-26T06:20:24.678Z,5.24
2018-12-26T06:21:24.667Z,5.31
2018-12-26T06:22:24.660Z,5.27
2018-12-26T06:23:24.647Z,5.28
2018-12-26T06:24:24.659Z,5.25
2018-12-26T06:25:24.626Z,5.28
2018-12-26T06:26:24.614Z,5.31
2018-12-26T06:27:24.605Z,5.28
2018-12-26T06:28:24.591Z,5.24
2018-12-26T06:29:24.616Z,5.25
2018-12-26T06:30:24.571Z,5.27
2018-12-26T06:31:24.560Z,5.27
2018-12-26T06:32:24.549Z,5.21
2018-12-26T06:33:24.540Z,5.24
2018-12-26T06:34:24.528Z,5.25
2018-12-26T06:35:24.545Z,5.18
2018-12-26T06:36:24.507Z,5.17
2018-12-26T06:37:24.498Z,5.20
2018-12-26T06:38:24.485Z,5.18
2018-12-26T06:39:24.474Z,5.25
2018-12-26T06:40:24.493Z,5.18
2018-12-26T06:41:24.453Z,5.21
2018-12-26T06:42:24.440Z,5.22
2018-12-26T06:43:24.430Z,5.21
2018-12-26T06:44:24.422Z,5.25
2018-12-26T06:45:24.435Z,5.22
2018-12-26T06:46:24.403Z,5.21
2018-12-26T06:47:24.387Z,5.22
2018-12-26T06:48:24.377Z,5.25
2018-12-26T06:49:24.366Z,5.21
2018-12-26T06:50:24.381Z,5.10
2018-12-26T06:51:24.345Z,5.09
2018-12-26T06:52:24.335Z,5.24
2018-12-26T06:53:24.324Z,5.10
2018-12-26T06:54:24.313Z,5.12
2018-12-26T06:55:24.335Z,5.13
2018-12-26T06:56:24.293Z,5.22
2018-12-26T06:57:24.281Z,5.24
2018-12-26T06:58:24.270Z,5.12
2018-12-26T06:59:24.260Z,5.15
2018-12-26T07:00:24.247Z,5.17
2018-12-26T07:01:24.263Z,5.04
2018-12-26T07:02:24.230Z,5.09
2018-12-26T07:03:26.079Z,5.10
2018-12-26T07:04:24.206Z,5.13
2018-12-26T07:05:24.195Z,5.12
2018-12-26T07:06:24.209Z,5.10
2018-12-26T07:07:24.175Z,5.07
2018-12-26T07:08:24.163Z,5.09
2018-12-26T07:09:24.153Z,5.07
2018-12-26T07:10:24.142Z,5.06
2018-12-26T07:11:24.170Z,5.07
2018-12-26T07:12:24.122Z,4.99
2018-12-26T07:13:24.110Z,5.03
2018-12-26T07:14:24.100Z,5.04
2018-12-26T07:15:24.089Z,5.09
2018-12-26T07:16:24.081Z,5.09
2018-12-26T07:17:24.091Z,5.12
2018-12-26T07:18:24.056Z,5.09
2018-12-26T07:19:24.046Z,5.06
2018-12-26T07:20:24.035Z,5.06
2018-12-26T07:21:24.024Z,5.06
2018-12-26T07:22:24.039Z,5.06
2018-12-26T07:23:24.002Z,5.06
2018-12-26T07:24:23.992Z,5.09
2018-12-26T07:25:23.982Z,5.07
2018-12-26T07:26:23.969Z,5.07
2018-12-26T07:27:23.992Z,5.09
2018-12-26T07:28:23.948Z,5.20
2018-12-26T07:29:23.954Z,5.17
2018-12-26T07:30:23.926Z,5.17
2018-12-26T07:31:23.919Z,5.10
2018-12-26T07:32:23.905Z,5.17
2018-12-26T07:33:23.919Z,5.17
2018-12-26T07:34:23.882Z,5.06
2018-12-26T07:35:23.883Z,5.25
2018-12-26T07:36:23.865Z,5.17
2018-12-26T07:37:23.852Z,5.18
2018-12-26T07:38:23.867Z,5.09
2018-12-26T07:39:23.829Z,5.15
2018-12-26T07:40:23.819Z,5.10
2018-12-26T07:41:23.809Z,5.20
2018-12-26T07:42:23.799Z,5.12
2018-12-26T07:43:23.832Z,5.18
2018-12-26T07:44:23.776Z,5.15
2018-12-26T07:45:23.765Z,5.10
2018-12-26T07:46:23.755Z,5.15
2018-12-26T07:47:23.743Z,5.15
2018-12-26T07:48:23.731Z,5.21
2018-12-26T07:49:23.752Z,5.21
2018-12-26T07:50:23.711Z,5.18
2018-12-26T07:51:23.701Z,5.18
2018-12-26T07:52:23.694Z,5.21
2018-12-26T07:53:23.677Z,5.18
2018-12-26T07:54:23.695Z,5.18
2018-12-26T07:55:23.656Z,5.12
2018-12-26T07:56:23.646Z,5.15
2018-12-26T07:57:23.635Z,5.10
2018-12-26T07:58:23.623Z,5.12
2018-12-26T07:59:23.650Z,5.12
2018-12-26T08:00:23.603Z,5.13
2018-12-26T08:01:23.592Z,5.20
2018-12-26T08:02:23.579Z,5.12
2018-12-26T08:03:23.570Z,5.13
2018-12-26T08:04:23.560Z,5.15
2018-12-26T08:05:23.573Z,5.15
2018-12-26T08:06:23.537Z,5.12
2018-12-26T08:07:23.527Z,5.15
2018-12-26T08:08:23.517Z,5.10
2018-12-26T08:09:23.504Z,5.15
2018-12-26T08:10:23.521Z,5.13
2018-12-26T08:11:23.484Z,5.09
2018-12-26T08:12:23.473Z,5.12
2018-12-26T08:13:23.469Z,5.20
2018-12-26T08:14:23.453Z,5.15
2018-12-26T08:15:23.477Z,5.09
2018-12-26T08:16:23.432Z,5.06
2018-12-26T08:17:23.420Z,5.18
2018-12-26T08:18:23.409Z,5.15
2018-12-26T08:19:23.399Z,5.20
2018-12-26T08:20:23.387Z,5.12
2018-12-26T08:21:23.401Z,5.12
2018-12-26T08:22:23.363Z,5.25
2018-12-26T08:23:23.351Z,5.24
2018-12-26T08:24:23.344Z,5.25
2018-12-26T08:25:23.331Z,5.27
2018-12-26T08:26:23.343Z,5.28
2018-12-26T08:27:23.309Z,5.25
2018-12-26T08:28:26.763Z,5.27
2018-12-26T08:29:23.290Z,5.31
2018-12-26T08:30:23.365Z,5.24
2018-12-26T08:31:23.300Z,5.28
2018-12-26T08:32:23.256Z,5.20
2018-12-26T08:33:23.245Z,5.25
2018-12-26T08:34:23.234Z,5.24
2018-12-26T08:35:23.221Z,5.22
2018-12-26T08:36:23.213Z,5.24
2018-12-26T08:37:23.231Z,5.18
2018-12-26T08:38:23.191Z,5.20
2018-12-26T08:39:23.184Z,5.24
2018-12-26T08:40:23.172Z,5.25
2018-12-26T08:41:23.159Z,5.21
2018-12-26T08:42:23.172Z,5.15
2018-12-26T08:43:23.140Z,5.21
2018-12-26T08:44:23.127Z,5.21
2018-12-26T08:45:23.114Z,5.12
2018-12-26T08:46:23.104Z,5.15
2018-12-26T08:47:23.128Z,5.12
2018-12-26T08:48:23.081Z,5.15
2018-12-26T08:49:23.071Z,5.15
2018-12-26T08:50:23.059Z,5.17
2018-12-26T08:51:23.051Z,5.25
2018-12-26T08:52:23.037Z,5.15
2018-12-26T08:53:23.052Z,5.17
2018-12-26T08:54:23.015Z,5.12
2018-12-26T08:55:23.004Z,5.17
2018-12-26T08:56:22.997Z,5.17
2018-12-26T08:57:22.982Z,5.10
2018-12-26T08:58:22.999Z,5.18
2018-12-26T08:59:22.963Z,5.21
2018-12-26T09:00:22.951Z,5.10
2018-12-26T09:01:22.941Z,5.12
2018-12-26T09:02:22.928Z,5.18
2018-12-26T09:03:22.952Z,5.17
2018-12-26T09:04:22.909Z,5.18
2018-12-26T09:05:22.897Z,5.12
2018-12-26T09:06:22.885Z,5.17
2018-12-26T09:07:22.875Z,5.13
2018-12-26T09:08:22.865Z,5.21
2018-12-26T09:09:22.883Z,5.24
2018-12-26T09:10:22.841Z,5.09
2018-12-26T09:11:22.832Z,5.20
2018-12-26T09:12:22.831Z,5.12
2018-12-26T09:13:22.809Z,5.22
2018-12-26T09:14:22.825Z,5.20
2018-12-26T09:15:22.786Z,5.22
2018-12-26T09:16:22.776Z,5.21
2018-12-26T09:17:22.768Z,5.21
2018-12-26T09:18:22.755Z,5.13
2018-12-26T09:19:22.784Z,5.24
2018-12-26T09:20:22.735Z,5.30
2018-12-26T09:21:22.725Z,5.21
2018-12-26T09:22:22.715Z,5.27
2018-12-26T09:23:22.704Z,5.21
2018-12-26T09:24:22.690Z,5.20
2018-12-26T09:25:22.705Z,5.24
2018-12-26T09:26:22.667Z,5.24
2018-12-26T09:27:22.655Z,5.27
2018-12-26T09:28:22.644Z,5.21
2018-12-26T09:29:22.634Z,5.25
2018-12-26T09:30:22.648Z,5.22
2018-12-26T09:31:22.612Z,5.21
2018-12-26T09:32:22.601Z,5.22
2018-12-26T09:33:22.590Z,5.30
2018-12-26T09:34:22.581Z,5.27
2018-12-26T09:35:22.605Z,5.24
2018-12-26T09:36:22.560Z,5.24
2018-12-26T09:37:22.548Z,5.25
2018-12-26T09:38:22.537Z,5.25
2018-12-26T09:39:22.526Z,5.31
2018-12-26T09:40:22.516Z,5.22
2018-12-26T09:41:22.530Z,5.22
2018-12-26T09:42:22.494Z,5.24
2018-12-26T09:43:22.482Z,5.24
2018-12-26T09:44:22.472Z,5.25
2018-12-26T09:45:22.460Z,5.24
2018-12-26T09:46:22.477Z,5.25
2018-12-26T09:47:22.437Z,5.28
2018-12-26T09:48:22.427Z,5.25
2018-12-26T09:49:22.417Z,5.25
2018-12-26T09:50:22.406Z,5.30
2018-12-26T09:51:22.431Z,5.27
2018-12-26T09:52:22.386Z,5.25
2018-12-26T09:53:22.372Z,5.33
2018-12-26T09:54:22.364Z,5.25
2018-12-26T09:55:22.350Z,5.25
2018-12-26T09:56:22.344Z,5.28
2018-12-26T09:57:22.354Z,5.28
2018-12-26T09:58:22.316Z,5.25
2018-12-26T09:59:22.307Z,5.22
2018-12-26T10:00:22.298Z,5.27
2018-12-26T10:01:22.284Z,5.25
2018-12-26T10:02:22.300Z,5.25
2018-12-26T10:03:22.262Z,5.27
2018-12-26T10:04:22.252Z,5.28
2018-12-26T10:05:22.241Z,5.30
2018-12-26T10:06:22.232Z,5.27
2018-12-26T10:07:22.256Z,5.28
2018-12-26T10:08:22.210Z,5.24
2018-12-26T10:09:22.198Z,5.28
2018-12-26T10:10:22.185Z,5.27
2018-12-26T10:11:22.177Z,5.24
2018-12-26T10:12:22.164Z,5.30
2018-12-26T10:13:22.181Z,5.22
2018-12-26T10:14:22.144Z,5.30
2018-12-26T10:15:22.130Z,5.27
2018-12-26T10:16:22.124Z,5.25
2018-12-26T10:17:22.108Z,5.25
2018-12-26T10:18:22.125Z,5.27
2018-12-26T10:19:22.088Z,5.33
2018-12-26T10:20:22.079Z,5.27
2018-12-26T10:21:22.065Z,5.33
2018-12-26T10:22:22.057Z,5.25
2018-12-26T10:23:22.083Z,5.25
2018-12-26T10:24:22.034Z,5.25
2018-12-26T10:25:22.024Z,5.31
2018-12-26T10:26:22.011Z,5.28
2018-12-26T10:27:22.002Z,5.31
2018-12-26T10:28:21.990Z,5.25
2018-12-26T10:29:22.010Z,5.25
2018-12-26T10:30:21.969Z,5.33
2018-12-26T10:31:21.960Z,5.28
2018-12-26T10:32:21.947Z,5.21
2018-12-26T10:33:21.936Z,5.24
2018-12-26T10:34:21.950Z,5.27
2018-12-26T10:35:21.917Z,5.31
2018-12-26T10:36:21.905Z,5.27
2018-12-26T10:37:21.893Z,5.24
2018-12-26T10:38:21.884Z,5.28
2018-12-26T10:39:21.904Z,5.24
2018-12-26T10:40:21.863Z,5.25
2018-12-26T10:41:21.855Z,5.30
2018-12-26T10:42:21.837Z,5.24
2018-12-26T10:43:21.826Z,5.22
2018-12-26T10:44:21.817Z,5.27
2018-12-26T10:45:21.830Z,5.22
2018-12-26T10:46:21.803Z,5.21
2018-12-26T10:47:21.785Z,5.27
2018-12-26T10:48:21.774Z,5.17
2018-12-26T10:49:21.761Z,5.20
2018-12-26T10:50:21.776Z,5.06
2018-12-26T10:51:21.742Z,5.21
2018-12-26T10:52:21.730Z,5.21
2018-12-26T10:53:21.722Z,5.21
2018-12-26T10:54:21.707Z,5.20
2018-12-26T10:55:21.733Z,5.21
2018-12-26T10:56:21.685Z,5.07
2018-12-26T10:57:21.677Z,5.12
2018-12-26T10:58:21.664Z,5.25
2018-12-26T10:59:21.667Z,5.22
2018-12-26T11:00:21.641Z,5.21
2018-12-26T11:01:21.657Z,5.22
2018-12-26T11:02:21.624Z,5.12
2018-12-26T11:03:21.615Z,5.25
2018-12-26T11:04:21.646Z,5.22
2018-12-26T11:05:29.397Z,5.21
2018-12-26T11:06:22.611Z,5.20
2018-12-26T11:07:21.570Z,5.22
2018-12-26T11:08:21.556Z,5.24
2018-12-26T11:09:21.545Z,5.21
2018-12-26T11:10:21.536Z,5.20
2018-12-26T11:11:21.524Z,5.21
2018-12-26T11:12:21.547Z,5.25
2018-12-26T11:13:21.501Z,5.20
2018-12-26T11:14:21.495Z,5.20
2018-12-26T11:15:21.479Z,5.22
2018-12-26T11:16:21.469Z,5.20
2018-12-26T11:17:21.461Z,5.24
2018-12-26T11:18:21.475Z,5.25
2018-12-26T11:19:21.441Z,5.27
2018-12-26T11:20:21.426Z,5.28
2018-12-26T11:21:21.416Z,5.22
2018-12-26T11:22:21.405Z,5.17
2018-12-26T11:23:21.424Z,5.21
2018-12-26T11:24:21.383Z,5.24
2018-12-26T11:25:21.453Z,5.25
2018-12-26T11:26:21.362Z,5.31
2018-12-26T11:27:21.350Z,5.27
2018-12-26T11:28:21.374Z,5.24
2018-12-26T11:29:21.330Z,5.18
2018-12-26T11:30:21.319Z,5.28
2018-12-26T11:31:21.309Z,5.30
2018-12-26T11:32:21.298Z,5.27
2018-12-26T11:33:21.287Z,5.31
2018-12-26T11:34:21.313Z,5.28
2018-12-26T11:35:21.267Z,5.25
2018-12-26T11:36:21.292Z,5.28
2018-12-26T11:37:21.242Z,5.25
2018-12-26T11:38:21.233Z,5.25
2018-12-26T11:39:21.222Z,5.25
2018-12-26T11:40:21.235Z,5.28
2018-12-26T11:41:21.201Z,5.28
2018-12-26T11:42:21.194Z,5.30
2018-12-26T11:43:21.182Z,5.31
2018-12-26T11:44:21.268Z,5.25
2018-12-26T11:45:21.192Z,5.20
2018-12-26T11:46:21.145Z,5.27
2018-12-26T11:47:21.136Z,5.27
2018-12-26T11:48:21.124Z,5.25
2018-12-26T11:49:21.112Z,5.27
2018-12-26T11:50:21.102Z,5.27
2018-12-26T11:51:21.116Z,5.27
2018-12-26T11:52:21.081Z,5.21
2018-12-26T11:53:21.070Z,5.24
2018-12-26T11:54:21.060Z,5.27
2018-12-26T11:55:21.049Z,5.24
2018-12-26T11:56:21.073Z,5.28
2018-12-26T11:57:21.027Z,5.30
2018-12-26T11:58:21.016Z,5.25
2018-12-26T11:59:27.146Z,5.31
2018-12-26T12:00:21.994Z,5.28
2018-12-26T12:01:20.984Z,5.24
2018-12-26T12:02:21.008Z,5.31
2018-12-26T12:03:20.961Z,5.33
2018-12-26T12:04:20.951Z,5.39
2018-12-26T12:05:20.938Z,5.31
2018-12-26T12:06:20.930Z,5.40
2018-12-26T12:07:20.919Z,5.28
2018-12-26T12:08:20.935Z,5.38
2018-12-26T12:09:20.897Z,5.35
2018-12-26T12:10:20.891Z,5.25
2018-12-26T12:11:20.873Z,5.27
2018-12-26T12:12:20.866Z,5.28
2018-12-26T12:13:20.878Z,5.42
2018-12-26T12:14:20.849Z,5.36
2018-12-26T12:15:20.830Z,5.40
2018-12-26T12:16:20.821Z,5.38
2018-12-26T12:17:20.810Z,5.35
2018-12-26T12:18:20.839Z,5.38
2018-12-26T12:19:20.788Z,5.35
2018-12-26T12:20:20.777Z,5.40
2018-12-26T12:21:20.767Z,5.46
2018-12-26T12:22:20.838Z,5.31
2018-12-26T12:23:20.744Z,5.42
2018-12-26T12:24:20.773Z,5.46
2018-12-26T12:25:20.726Z,5.42
2018-12-26T12:26:20.714Z,5.48
2018-12-26T12:27:20.704Z,5.48
2018-12-26T12:28:20.692Z,5.49
2018-12-26T12:29:20.681Z,5.46
2018-12-26T12:30:20.694Z,5.43
2018-12-26T12:31:20.662Z,5.46
2018-12-26T12:32:20.648Z,5.45
2018-12-26T12:33:20.640Z,5.53
2018-12-26T12:34:20.629Z,5.53
2018-12-26T12:35:20.642Z,5.48
2018-12-26T12:36:20.606Z,5.49
2018-12-26T12:37:20.595Z,5.53
2018-12-26T12:38:20.587Z,5.51
2018-12-26T12:39:20.577Z,5.57
2018-12-26T12:40:20.606Z,5.56
2018-12-26T12:41:20.554Z,5.57
2018-12-26T12:42:20.543Z,5.57
2018-12-26T12:43:20.532Z,5.61
2018-12-26T12:44:21.602Z,5.54
2018-12-26T12:45:20.511Z,5.58
2018-12-26T12:46:20.535Z,5.61
2018-12-26T12:47:20.490Z,5.61
2018-12-26T12:48:20.485Z,5.57
2018-12-26T12:49:20.468Z,5.58
2018-12-26T12:50:20.459Z,5.54
2018-12-26T12:51:20.448Z,5.56
2018-12-26T12:52:20.472Z,5.58
2018-12-26T12:53:20.426Z,5.60
2018-12-26T12:54:20.415Z,5.54
2018-12-26T12:55:20.405Z,5.60
2018-12-26T12:56:20.395Z,5.60
2018-12-26T12:57:20.383Z,5.60
2018-12-26T12:58:20.407Z,5.57
2018-12-26T12:59:20.363Z,5.56
2018-12-26T13:00:20.349Z,5.56
2018-12-26T13:01:20.340Z,5.60
2018-12-26T13:02:20.330Z,5.56
2018-12-26T13:03:20.355Z,5.57
2018-12-26T13:04:20.307Z,5.57
2018-12-26T13:05:20.300Z,5.60
2018-12-26T13:06:20.286Z,5.63
2018-12-26T13:07:20.277Z,5.56
2018-12-26T13:08:20.276Z,5.60
2018-12-26T13:09:20.294Z,5.63
2018-12-26T13:10:20.264Z,5.63
2018-12-26T13:11:20.234Z,5.61
2018-12-26T13:12:20.227Z,5.64
2018-12-26T13:13:20.211Z,5.67
2018-12-26T13:14:20.200Z,5.67
2018-12-26T13:15:20.213Z,5.67
2018-12-26T13:16:20.180Z,5.65
2018-12-26T13:17:20.169Z,5.67
2018-12-26T13:18:20.157Z,5.67